Time;durP1;ratioP1;P1;durP2;ratioP2;P2;SDS_P1;SDS_P2;PMS_P1;PMS_P2;Temp;Humidity;BMP_temperature;BMP_pressure;BME280_temperature;BME280_humidity;BME280_pressure;Samples;Min_cycle;Max_cycle;Signal;HPM_P1;HPM_P2
2021/05/27 00:00:29;;;;;;;16.98;8.18;;;;;;;10.36;100.00;101563.19;5252845;28;20066;-85
2021/05/27 00:03:00;;;;;;;12.30;7.32;;;;;;;10.20;100.00;101561.09;5252362;28;20021;-84
2021/05/27 00:05:31;;;;;;;14.27;8.32;;;;;;;10.15;100.00;101565.19;5252608;28;20154;-84
2021/05/27 00:08:02;;;;;;;13.10;8.38;;;;;;;10.19;100.00;101567.44;5253879;28;20567;-85
2021/05/27 00:10:33;;;;;;;14.57;8.63;;;;;;;10.27;100.00;101580.16;5253065;28;20020;-84
2021/05/27 00:13:04;;;;;;;17.15;8.90;;;;;;;10.28;100.00;101573.78;5252800;28;20021;-84
2021/05/27 00:15:34;;;;;;;18.40;9.18;;;;;;;10.26;100.00;101570.41;5253955;28;20027;-84
2021/05/27 00:18:05;;;;;;;19.42;9.40;;;;;;;10.24;100.00;101583.09;5251461;28;20315;-84
2021/05/27 00:20:35;;;;;;;16.02;9.57;;;;;;;10.42;100.00;101583.19;5252836;28;20040;-85
2021/05/27 00:23:06;;;;;;;16.48;10.20;;;;;;;10.37;100.00;101589.84;5252864;28;20028;-84
2021/05/27 00:25:37;;;;;;;19.45;10.57;;;;;;;10.38;100.00;101593.38;5254978;28;20020;-84
2021/05/27 00:28:07;;;;;;;21.00;10.30;;;;;;;10.33;100.00;101598.31;5255313;28;20020;-84
2021/05/27 00:30:38;;;;;;;18.63;11.35;;;;;;;10.34;100.00;101592.84;5254513;28;20058;-85
2021/05/27 00:33:08;;;;;;;19.88;11.60;;;;;;;10.42;100.00;101588.56;5254828;28;20021;-84
2021/05/27 00:35:38;;;;;;;18.38;11.00;;;;;;;10.37;100.00;101594.38;5241074;28;20037;-84
2021/05/27 00:38:09;;;;;;;19.45;11.57;;;;;;;10.36;100.00;101598.03;5253274;28;20115;-85
2021/05/27 00:40:40;;;;;;;20.45;10.68;;;;;;;10.34;100.00;101592.84;5251214;28;20100;-85
2021/05/27 00:43:10;;;;;;;25.27;11.88;;;;;;;10.32;100.00;101600.16;5252309;28;20032;-84
2021/05/27 00:45:41;;;;;;;22.33;11.18;;;;;;;10.31;100.00;101601.16;5251744;28;20024;-85
2021/05/27 00:51:11;;;;;;;17.02;10.60;;;;;;;10.28;100.00;101608.66;5251884;28;20126;-84
2021/05/27 00:53:42;;;;;;;21.15;10.32;;;;;;;10.38;100.00;101607.63;5252052;28;20020;-84
2021/05/27 00:56:13;;;;;;;18.33;10.10;;;;;;;10.38;100.00;101606.78;5252636;28;20480;-84
2021/05/27 00:58:44;;;;;;;22.08;11.25;;;;;;;10.44;100.00;101598.16;5252577;28;20043;-84
2021/05/27 01:01:15;;;;;;;18.90;10.73;;;;;;;10.43;100.00;101600.97;5251539;28;20032;-86
2021/05/27 01:03:46;;;;;;;19.35;9.68;;;;;;;10.40;100.00;101593.25;5246507;28;20025;-85
2021/05/27 01:06:30;;;;;;;20.52;10.93;;;;;;;10.39;100.00;101595.06;5246367;28;20399;-85
2021/05/27 01:09:02;;;;;;;22.10;10.50;;;;;;;10.39;100.00;101603.09;5246018;28;20027;-87
2021/05/27 01:11:33;;;;;;;21.75;10.80;;;;;;;10.48;100.00;101596.84;5246111;28;20487;-85
2021/05/27 01:14:12;;;;;;;17.17;10.50;;;;;;;10.41;100.00;101594.94;5246769;28;20025;-85
2021/05/27 01:17:04;;;;;;;20.13;10.63;;;;;;;10.35;100.00;101597.19;5243326;28;20028;-85
2021/05/27 01:19:55;;;;;;;17.40;10.80;;;;;;;10.34;100.00;101598.19;5243711;28;20534;-85
2021/05/27 01:22:25;;;;;;;21.30;10.32;;;;;;;10.43;100.00;101601.81;5244900;28;20033;-85
2021/05/27 01:24:56;;;;;;;22.60;11.00;;;;;;;10.41;100.00;101606.50;5244520;28;20024;-85
2021/05/27 01:27:27;;;;;;;20.60;11.63;;;;;;;10.37;100.00;101613.97;5241935;28;20103;-85
2021/05/27 01:30:13;;;;;;;27.52;11.63;;;;;;;10.36;100.00;101606.09;5236212;28;20107;-85
2021/05/27 01:32:52;;;;;;;23.88;11.75;;;;;;;10.34;100.00;101608.06;5244902;28;20111;-86
2021/05/27 01:35:24;;;;;;;22.65;11.35;;;;;;;10.26;100.00;101600.75;5244064;28;20032;-85
2021/05/27 01:37:55;;;;;;;25.67;11.88;;;;;;;10.32;100.00;101618.09;5244662;28;20024;-85
2021/05/27 01:40:26;;;;;;;20.95;11.73;;;;;;;10.30;100.00;101612.88;5231764;28;21921;-86
2021/05/27 01:42:57;;;;;;;21.27;11.38;;;;;;;10.26;100.00;101608.81;5247617;28;20032;-85
2021/05/27 01:45:27;;;;;;;20.50;10.57;;;;;;;10.27;100.00;101604.28;5248621;28;20024;-86
2021/05/27 01:47:59;;;;;;;20.63;11.38;;;;;;;10.24;100.00;101602.75;5248339;28;20029;-85
2021/05/27 01:50:30;;;;;;;27.00;12.63;;;;;;;10.21;100.00;101604.84;5248139;28;20025;-86
2021/05/27 01:53:06;;;;;;;23.75;13.00;;;;;;;10.17;100.00;101598.91;5248418;28;20024;-85
2021/05/27 01:55:45;;;;;;;26.05;14.43;;;;;;;10.16;100.00;101613.31;5235079;28;20025;-85
2021/05/27 01:58:18;;;;;;;28.63;14.45;;;;;;;10.27;100.00;101604.28;5246770;28;20494;-85
2021/05/27 02:00:49;;;;;;;28.98;13.77;;;;;;;10.30;100.00;101614.72;5248222;28;20518;-85
2021/05/27 02:03:19;;;;;;;29.60;14.98;;;;;;;10.28;100.00;101614.84;5248092;28;20025;-85
2021/05/27 02:05:50;;;;;;;25.85;14.73;;;;;;;10.21;100.00;101610.19;5248492;28;20024;-86
2021/05/27 02:08:21;;;;;;;30.02;16.40;;;;;;;10.16;100.00;101613.31;5247881;28;20082;-85
2021/05/27 02:10:52;;;;;;;30.75;15.98;;;;;;;10.20;100.00;101609.34;5247424;28;20108;-85
2021/05/27 02:13:23;;;;;;;31.58;14.48;;;;;;;10.22;100.00;101614.56;5248026;28;20104;-85
2021/05/27 02:15:53;;;;;;;32.92;15.18;;;;;;;10.31;100.00;101609.22;5247874;28;20578;-85
2021/05/27 02:18:24;;;;;;;30.90;15.95;;;;;;;10.36;100.00;101608.78;5247880;28;20060;-85
2021/05/27 02:20:54;;;;;;;33.33;15.90;;;;;;;10.30;100.00;101615.56;5247327;28;20569;-85
2021/05/27 02:23:25;;;;;;;33.05;16.73;;;;;;;10.24;100.00;101623.34;5247437;28;20059;-85
2021/05/27 02:25:55;;;;;;;31.42;17.25;;;;;;;10.19;100.00;101625.56;5247729;28;20032;-85
2021/05/27 02:28:26;;;;;;;32.05;16.77;;;;;;;10.18;100.00;101629.25;5247786;28;20103;-85
2021/05/27 02:30:56;;;;;;;33.20;17.17;;;;;;;10.18;100.00;101626.56;5247266;28;20025;-85
2021/05/27 02:33:27;;;;;;;37.15;17.45;;;;;;;10.12;100.00;101631.50;5247493;28;20013;-85
2021/05/27 02:35:57;;;;;;;39.58;18.27;;;;;;;10.15;100.00;101626.88;5246936;28;20037;-85
2021/05/27 02:38:28;;;;;;;31.40;17.65;;;;;;;10.16;100.00;101624.03;5247264;28;20028;-86
2021/05/27 02:40:58;;;;;;;36.15;18.52;;;;;;;10.16;100.00;101621.34;5246962;28;20027;-85
2021/05/27 02:43:30;;;;;;;43.70;18.55;;;;;;;10.19;100.00;101629.13;5246974;28;20020;-85
2021/05/27 02:46:01;;;;;;;40.13;18.67;;;;;;;10.24;100.00;101631.38;5247649;28;20047;-86
2021/05/27 02:48:32;;;;;;;39.13;18.70;;;;;;;10.20;100.00;101627.28;5246955;28;20111;-85
2021/05/27 02:51:04;;;;;;;37.20;18.52;;;;;;;10.18;100.00;101621.19;5246824;28;20566;-85
2021/05/27 02:53:34;;;;;;;39.85;20.30;;;;;;;10.18;100.00;101630.09;5245785;28;20430;-85
2021/05/27 02:56:05;;;;;;;35.95;18.55;;;;;;;10.25;100.00;101633.09;5247210;28;20028;-85
2021/05/27 02:58:36;;;;;;;43.00;19.98;;;;;;;10.22;100.00;101626.13;5246643;28;20029;-85
2021/05/27 03:01:06;;;;;;;40.33;20.40;;;;;;;10.22;100.00;101638.69;5245364;28;20017;-85
2021/05/27 03:03:37;;;;;;;35.35;19.73;;;;;;;10.23;100.00;101625.13;5245536;28;20553;-84
2021/05/27 03:06:07;;;;;;;41.83;19.55;;;;;;;10.22;100.00;101633.34;5246988;28;20365;-84
2021/05/27 03:08:41;;;;;;;40.65;20.67;;;;;;;10.25;100.00;101635.78;5246901;28;20051;-85
2021/05/27 03:11:11;;;;;;;41.58;20.58;;;;;;;10.17;100.00;101632.94;5245852;28;20108;-84
2021/05/27 03:13:42;;;;;;;49.15;22.60;;;;;;;10.16;100.00;101633.91;5246703;28;20539;-82
2021/05/27 03:16:13;;;;;;;40.30;20.83;;;;;;;10.18;100.00;101638.13;5246336;28;20031;-85
2021/05/27 03:18:43;;;;;;;48.35;20.80;;;;;;;10.20;100.00;101633.50;5249546;28;20016;-85
2021/05/27 03:21:14;;;;;;;44.38;22.90;;;;;;;10.16;100.00;101633.91;5248771;28;20542;-85
2021/05/27 03:23:44;;;;;;;51.13;23.02;;;;;;;10.24;100.00;101631.38;5248673;28;20454;-85
2021/05/27 03:26:16;;;;;;;45.63;22.85;;;;;;;10.23;100.00;101637.69;5249490;28;20438;-85
2021/05/27 03:28:46;;;;;;;46.83;23.15;;;;;;;10.15;100.00;101634.91;5249441;28;20476;-85
2021/05/27 03:31:17;;;;;;;46.08;24.52;;;;;;;10.16;100.00;101637.44;5249063;28;20136;-85
2021/05/27 03:33:47;;;;;;;49.72;24.30;;;;;;;10.19;100.00;101644.34;5249675;28;20095;-85
2021/05/27 03:36:18;;;;;;;56.75;25.95;;;;;;;10.16;100.00;101648.16;5248728;28;20028;-85
2021/05/27 03:38:48;;;;;;;53.42;24.08;;;;;;;10.20;100.00;101641.53;5249854;28;20107;-85
2021/05/27 03:41:19;;;;;;;58.00;24.02;;;;;;;10.19;100.00;101636.28;5247990;28;20661;-85
2021/05/27 03:43:49;;;;;;;56.72;25.27;;;;;;;10.17;100.00;101640.97;5249476;28;20442;-85
2021/05/27 03:46:20;;;;;;;56.65;24.85;;;;;;;10.17;100.00;101638.28;5249430;28;20028;-85
2021/05/27 03:48:50;;;;;;;56.28;25.83;;;;;;;10.22;100.00;101644.06;5248545;28;20024;-85
2021/05/27 03:51:21;;;;;;;54.28;25.73;;;;;;;10.23;100.00;101643.91;5248853;28;20476;-85
2021/05/27 03:53:51;;;;;;;50.67;24.20;;;;;;;10.29;100.00;101647.88;5248964;28;20498;-85
2021/05/27 03:56:22;;;;;;;59.50;25.40;;;;;;;10.25;100.00;101635.78;5248836;28;20150;-85
2021/05/27 04:01:41;;;;;;;56.17;25.77;;;;;;;10.31;100.00;101648.59;5248009;28;20115;-85
2021/05/27 04:07:10;;;;;;;52.53;23.52;;;;;;;10.25;100.00;101654.53;5248688;28;20565;-85
2021/05/27 04:09:41;;;;;;;51.03;23.52;;;;;;;10.28;100.00;101656.91;5248841;28;20051;-85
2021/05/27 04:17:58;;;;;;;51.28;23.98;;;;;;;10.33;100.00;101665.38;5241942;28;20063;-85
2021/05/27 04:20:35;;;;;;;52.17;24.15;;;;;;;10.31;100.00;101662.00;5245141;28;20016;-85
2021/05/27 04:23:08;;;;;;;51.47;23.52;;;;;;;10.30;100.00;101663.00;5246328;28;20025;-85
2021/05/27 04:25:40;;;;;;;52.78;24.55;;;;;;;10.35;100.00;101671.47;5246235;28;20575;-85
2021/05/27 04:28:10;;;;;;;44.75;23.35;;;;;;;10.32;100.00;101669.06;5245765;28;20074;-85
2021/05/27 04:33:30;;;;;;;51.05;23.50;;;;;;;10.43;100.00;101665.34;5246224;28;20314;-85
2021/05/27 04:36:01;;;;;;;46.65;23.63;;;;;;;10.37;100.00;101661.41;5245831;28;20036;-84
2021/05/27 04:38:32;;;;;;;50.25;23.67;;;;;;;10.42;100.00;101672.56;5244602;28;20092;-85
2021/05/27 04:41:03;;;;;;;56.08;22.48;;;;;;;10.45;100.00;101676.81;5245953;28;20054;-85
2021/05/27 04:43:35;;;;;;;46.47;22.10;;;;;;;10.50;100.00;101671.84;5245900;28;20380;-85
2021/05/27 04:46:06;;;;;;;46.72;22.55;;;;;;;10.50;100.00;101672.69;5245805;28;20029;-85
2021/05/27 04:48:37;;;;;;;46.28;22.13;;;;;;;10.44;100.00;101685.81;5245876;28;20035;-85
2021/05/27 04:51:08;;;;;;;45.78;23.08;;;;;;;10.44;100.00;101686.69;5234726;28;20548;-85
2021/05/27 04:53:38;;;;;;;46.63;22.17;;;;;;;10.42;100.00;101690.50;5242866;28;20067;-85
2021/05/27 04:56:09;;;;;;;40.88;20.10;;;;;;;10.48;100.00;101685.38;5245643;28;20078;-85
2021/05/27 04:58:39;;;;;;;42.08;20.45;;;;;;;10.47;100.00;101697.13;5245602;28;20020;-85
2021/05/27 05:01:10;;;;;;;45.25;21.65;;;;;;;10.63;100.00;101696.50;5245332;28;20387;-85
2021/05/27 05:03:40;;;;;;;45.22;20.38;;;;;;;10.58;100.00;101696.09;5243658;28;20035;-85
2021/05/27 05:06:11;;;;;;;45.13;21.35;;;;;;;10.60;100.00;101694.13;5245168;28;20107;-85
2021/05/27 05:08:41;;;;;;;37.10;19.73;;;;;;;10.60;100.00;101697.66;5245761;28;20036;-85
2021/05/27 05:11:12;;;;;;;43.40;20.00;;;;;;;10.58;100.00;101704.97;5245642;28;20029;-85
2021/05/27 05:13:42;;;;;;;43.33;21.10;;;;;;;10.66;100.00;101698.91;5245352;28;20029;-85
2021/05/27 05:16:13;;;;;;;47.55;20.55;;;;;;;10.70;100.00;101702.16;5236147;28;20088;-85
2021/05/27 05:18:43;;;;;;;38.45;21.25;;;;;;;10.66;100.00;101708.78;5248706;28;20476;-85
2021/05/27 05:21:13;;;;;;;40.78;21.05;;;;;;;10.68;100.00;101693.38;5248619;28;20387;-84
2021/05/27 05:23:44;;;;;;;39.75;20.52;;;;;;;10.71;100.00;101693.94;5249072;28;20426;-85
2021/05/27 05:26:15;;;;;;;44.70;22.73;;;;;;;10.66;100.00;101704.28;5248917;28;20025;-85
2021/05/27 05:28:45;;;;;;;46.38;21.98;;;;;;;10.71;100.00;101707.38;5248783;28;20360;-85
2021/05/27 05:31:16;;;;;;;46.20;21.90;;;;;;;10.69;100.00;101711.16;5248408;28;20032;-85
2021/05/27 05:33:48;;;;;;;43.95;22.13;;;;;;;10.69;100.00;101703.13;5249087;28;20031;-85
2021/05/27 05:36:19;;;;;;;43.70;21.70;;;;;;;10.69;100.00;101716.53;5248813;28;20119;-85
2021/05/27 05:38:50;;;;;;;45.45;23.20;;;;;;;10.66;100.00;101717.69;5248623;28;20107;-85
2021/05/27 05:41:21;;;;;;;47.22;21.33;;;;;;;10.69;100.00;101711.16;5248107;28;20482;-85
2021/05/27 05:43:51;;;;;;;45.95;22.15;;;;;;;10.75;100.00;101715.97;5248547;28;20029;-85
2021/05/27 05:46:23;;;;;;;43.00;22.85;;;;;;;10.62;100.00;101711.75;5248917;28;20137;-85
2021/05/27 05:48:53;;;;;;;50.00;22.75;;;;;;;10.62;100.00;101721.66;5248256;28;20048;-84
2021/05/27 05:51:24;;;;;;;45.17;22.55;;;;;;;10.65;100.00;101731.25;5248008;28;20020;-85
2021/05/27 05:53:54;;;;;;;38.28;18.52;;;;;;;10.69;100.00;101738.84;5248354;28;20074;-85
2021/05/27 05:56:25;;;;;;;33.08;13.73;;;;;;;10.74;100.00;101733.03;5248411;28;20032;-84
2021/05/27 05:58:55;;;;;;;32.10;13.07;;;;;;;10.68;100.00;101736.31;5248115;28;20112;-86
2021/05/27 06:01:26;;;;;;;23.15;11.98;;;;;;;10.66;100.00;101736.47;5247722;28;20024;-85
2021/05/27 06:03:56;;;;;;;26.90;10.88;;;;;;;10.68;100.00;101742.53;5247838;28;20039;-85
2021/05/27 06:06:27;;;;;;;26.70;11.32;;;;;;;10.68;100.00;101753.25;5248229;28;20068;-85
2021/05/27 06:08:57;;;;;;;25.20;10.45;;;;;;;10.81;100.00;101750.28;5248126;28;20511;-85
2021/05/27 06:11:28;;;;;;;18.52;8.65;;;;;;;11.01;100.00;101754.59;5248682;28;20624;-85
2021/05/27 06:13:58;;;;;;;26.27;8.73;;;;;;;11.17;100.00;101756.66;5247266;28;20028;-85
2021/05/27 06:16:29;;;;;;;20.95;8.02;;;;;;;11.21;100.00;101754.50;5239375;28;20058;-85
2021/05/27 06:18:59;;;;;;;18.92;8.95;;;;;;;11.19;100.00;101757.31;5247511;28;20400;-85
2021/05/27 06:21:30;;;;;;;24.52;8.15;;;;;;;11.22;100.00;101762.41;5246455;28;20021;-85
2021/05/27 06:24:00;;;;;;;21.13;7.78;;;;;;;11.22;100.00;101765.09;5246330;28;20033;-85
2021/05/27 06:26:33;;;;;;;22.17;7.45;;;;;;;11.28;100.00;101758.28;5235633;28;20029;-86
2021/05/27 06:29:04;;;;;;;15.70;7.00;;;;;;;11.27;100.00;101764.66;5246813;28;20043;-85
2021/05/27 06:31:35;;;;;;;20.23;7.82;;;;;;;11.22;100.00;101766.94;5247711;28;20089;-84
2021/05/27 06:34:05;;;;;;;16.60;7.10;;;;;;;11.19;100.00;101762.69;5247391;28;20032;-85
2021/05/27 06:36:36;;;;;;;15.30;7.68;;;;;;;11.20;100.00;101755.53;5247371;28;20139;-84
2021/05/27 06:39:06;;;;;;;15.93;6.30;;;;;;;11.24;100.00;101759.56;5246931;28;20033;-84
2021/05/27 06:41:37;;;;;;;23.83;6.47;;;;;;;11.35;100.00;101765.63;5246590;28;20035;-85
2021/05/27 06:44:07;;;;;;;15.05;6.10;;;;;;;11.44;100.00;101771.91;5254923;28;20032;-84
2021/05/27 06:46:39;;;;;;;14.13;5.90;;;;;;;11.44;100.00;101771.06;5251460;28;20029;-83
2021/05/27 06:49:10;;;;;;;21.77;6.32;;;;;;;11.45;100.00;101770.94;5253181;28;20439;-84
2021/05/27 06:51:42;;;;;;;20.25;7.55;;;;;;;11.50;100.00;101767.81;5251196;28;20075;-84
2021/05/27 06:54:13;;;;;;;18.45;7.05;;;;;;;11.67;100.00;101769.69;5251291;28;20098;-84
2021/05/27 06:56:43;;;;;;;20.75;7.50;;;;;;;11.75;100.00;101780.53;5252205;28;20426;-84
2021/05/27 06:59:14;;;;;;;15.55;7.68;;;;;;;11.64;100.00;101776.19;5251094;28;20033;-84
2021/05/27 07:01:45;;;;;;;14.52;6.35;;;;;;;11.67;100.00;101789.34;5251185;28;20082;-84
2021/05/27 07:04:15;;;;;;;16.80;6.90;;;;;;;11.63;100.00;101787.09;5252279;28;20071;-84
2021/05/27 07:06:46;;;;;;;10.10;6.40;;;;;;;11.61;100.00;101789.94;5251403;28;20039;-84
2021/05/27 07:09:16;;;;;;;21.27;7.30;;;;;;;11.58;100.00;101790.22;5252969;28;20083;-84
2021/05/27 07:11:47;;;;;;;14.77;7.15;;;;;;;11.56;100.00;101797.59;5250195;28;20028;-84
2021/05/27 07:14:17;;;;;;;17.25;6.85;;;;;;;11.61;100.00;101789.09;5251722;28;20099;-84
2021/05/27 07:16:48;;;;;;;16.58;6.75;;;;;;;11.55;100.00;101792.41;5252449;28;20036;-84
2021/05/27 07:19:19;;;;;;;15.30;5.78;;;;;;;11.48;100.00;101794.81;5253142;28;20067;-84
2021/05/27 07:21:49;;;;;;;15.90;6.18;;;;;;;11.55;100.00;101795.91;5253392;28;20047;-84
2021/05/27 07:24:19;;;;;;;18.65;6.20;;;;;;;11.51;100.00;101801.75;5253672;28;20031;-84
2021/05/27 07:26:50;;;;;;;16.17;6.75;;;;;;;11.46;100.00;101801.34;5253955;28;20032;-84
2021/05/27 07:29:20;;;;;;;14.98;7.00;;;;;;;11.36;100.00;101793.31;5253435;28;20052;-84
2021/05/27 07:31:51;;;;;;;27.88;9.20;;;;;;;11.47;100.00;101801.19;5252641;28;20460;-84
2021/05/27 07:34:21;;;;;;;19.83;7.55;;;;;;;11.42;100.00;101806.16;5253218;28;20299;-84
2021/05/27 07:36:52;;;;;;;31.45;15.75;;;;;;;11.44;100.00;101803.31;5253518;28;20588;-84
2021/05/27 07:39:22;;;;;;;20.92;12.15;;;;;;;11.55;100.00;101806.69;5249793;28;20056;-83
2021/05/27 07:41:53;;;;;;;22.30;14.57;;;;;;;11.63;100.00;101800.53;5249761;28;20043;-83
2021/05/27 07:44:23;;;;;;;33.33;21.17;;;;;;;11.89;100.00;101803.38;5248661;28;20064;-85
2021/05/27 07:46:54;;;;;;;15.65;7.65;;;;;;;12.14;100.00;101808.00;5250422;28;20012;-84
2021/05/27 07:49:24;;;;;;;15.38;7.65;;;;;;;12.42;100.00;101800.72;5250711;28;20046;-84
2021/05/27 07:51:56;;;;;;;17.50;6.78;;;;;;;12.57;100.00;101806.38;5249350;28;20024;-84
2021/05/27 07:54:27;;;;;;;14.80;7.13;;;;;;;12.62;100.00;101804.06;5248923;28;20033;-84
2021/05/27 07:56:57;;;;;;;15.00;6.90;;;;;;;12.65;100.00;101808.28;5248864;28;20033;-83
2021/05/27 07:59:27;;;;;;;14.35;7.20;;;;;;;12.68;100.00;101814.22;5248495;28;20395;-84
2021/05/27 08:01:58;;;;;;;13.57;6.75;;;;;;;12.80;100.00;101814.81;5250518;28;20028;-84
2021/05/27 08:04:29;;;;;;;14.68;6.60;;;;;;;12.93;100.00;101807.16;5250981;28;20111;-84
2021/05/27 08:06:59;;;;;;;16.23;7.07;;;;;;;13.28;100.00;101804.53;5265948;28;20043;-84
2021/05/27 08:09:29;;;;;;;36.47;17.83;;;;;;;13.35;100.00;101814.47;5247814;28;20086;-84
2021/05/27 08:12:00;;;;;;;17.02;7.85;;;;;;;13.26;100.00;101814.63;5251571;28;20379;-84
2021/05/27 08:14:30;;;;;;;21.05;9.40;;;;;;;13.04;100.00;101816.81;5252347;28;20535;-84
2021/05/27 08:17:01;;;;;;;20.92;8.95;;;;;;;12.89;100.00;101813.00;5243469;28;20032;-84
2021/05/27 08:19:32;;;;;;;17.52;8.07;;;;;;;12.78;100.00;101819.50;5250852;28;20035;-84
2021/05/27 08:22:04;;;;;;;20.60;9.00;;;;;;;12.68;100.00;101824.13;5252297;28;20117;-84
2021/05/27 08:24:34;;;;;;;19.90;8.00;;;;;;;12.72;100.00;101827.38;5251745;28;20047;-84
2021/05/27 08:27:05;;;;;;;22.70;8.90;;;;;;;12.64;100.00;101828.13;5252393;28;20033;-84
2021/05/27 08:29:35;;;;;;;21.80;8.98;;;;;;;12.57;100.00;101824.38;5252498;28;20032;-84
2021/05/27 08:32:07;;;;;;;18.83;8.35;;;;;;;12.72;100.00;101827.38;5251578;28;20028;-84
2021/05/27 08:34:37;;;;;;;20.40;10.73;;;;;;;12.80;100.00;101827.41;5252057;28;20426;-84
2021/05/27 08:37:08;;;;;;;18.73;8.57;;;;;;;13.08;100.00;101825.44;5251802;28;20028;-84
2021/05/27 08:39:38;;;;;;;20.83;9.20;;;;;;;13.17;100.00;101830.72;5252331;28;20497;-84
2021/05/27 08:42:09;;;;;;;20.33;9.02;;;;;;;13.41;100.00;101829.19;5251886;28;20120;-84
2021/05/27 08:44:41;;;;;;;20.48;9.60;;;;;;;13.70;100.00;101826.97;5251877;28;20036;-84
2021/05/27 08:47:11;;;;;;;20.77;9.52;;;;;;;13.83;100.00;101831.03;5251799;28;20017;-84
2021/05/27 08:49:46;;;;;;;21.55;10.55;;;;;;;13.98;100.00;101830.25;5267078;28;20024;-84
2021/05/27 08:52:17;;;;;;;23.05;12.05;;;;;;;13.89;100.00;101833.06;5254843;28;20034;-84
2021/05/27 08:54:48;;;;;;;25.25;11.20;;;;;;;13.98;100.00;101829.41;5256282;28;20055;-84
2021/05/27 08:57:19;;;;;;;45.97;20.77;;;;;;;14.25;100.00;101839.91;5253806;28;20130;-86
2021/05/27 08:59:49;;;;;;;22.85;11.65;;;;;;;14.40;100.00;101842.78;5254643;28;20055;-85
2021/05/27 09:02:20;;;;;;;29.42;19.98;;;;;;;14.33;100.00;101841.78;5251308;28;20032;-84
2021/05/27 09:04:50;;;;;;;23.70;12.65;;;;;;;14.19;100.00;101843.28;5249850;28;20099;-85
2021/05/27 09:07:40;;;;;;;25.08;14.38;;;;;;;13.78;100.00;101834.22;5250137;28;20028;-85
2021/05/27 09:10:11;;;;;;;23.77;12.13;;;;;;;14.07;100.00;101841.91;5236388;28;20476;-84
2021/05/27 09:12:42;;;;;;;24.40;11.60;;;;;;;14.30;100.00;101844.81;5249274;28;20029;-85
2021/05/27 09:15:21;;;;;;;17.48;10.68;;;;;;;14.52;100.00;101854.16;5249941;28;20471;-85
2021/05/27 09:17:53;;;;;;;23.30;11.80;;;;;;;14.62;100.00;101852.13;5249027;28;20060;-85
2021/05/27 09:20:26;;;;;;;17.73;10.40;;;;;;;14.74;100.00;101852.63;5249697;28;20028;-85
2021/05/27 09:23:16;;;;;;;18.80;10.07;;;;;;;15.09;100.00;101862.22;5248066;28;20480;-85
2021/05/27 09:25:49;;;;;;;14.73;8.90;;;;;;;15.25;100.00;101859.50;5249982;28;20074;-85
2021/05/27 09:28:22;;;;;;;23.13;9.50;;;;;;;15.51;100.00;101853.00;5249153;28;20032;-85
2021/05/27 09:30:56;;;;;;;15.65;8.05;;;;;;;15.88;100.00;101849.69;5247955;28;20031;-85
2021/05/27 09:33:33;;;;;;;20.38;8.05;;;;;;;16.08;100.00;101874.44;5248967;28;20030;-85
2021/05/27 09:36:04;;;;;;;14.02;7.72;;;;;;;15.79;100.00;101856.13;5248695;28;20504;-85
2021/05/27 09:38:39;;;;;;;16.48;6.95;;;;;;;15.74;100.00;101858.53;5248270;28;20071;-85
2021/05/27 09:41:27;;;;;;;16.67;6.13;;;;;;;15.16;100.00;101865.94;5248566;28;20032;-85
2021/05/27 09:44:04;;;;;;;21.20;11.38;;;;;;;15.11;100.00;101873.72;5248478;28;20502;-85
2021/05/27 09:46:53;;;;;;;15.98;8.63;;;;;;;15.07;100.00;101879.66;5248615;28;20024;-85
2021/05/27 09:49:25;;;;;;;13.80;6.50;;;;;;;14.87;100.00;101865.66;5236715;28;20036;-85
2021/05/27 09:51:57;;;;;;;12.65;7.57;;;;;;;14.71;100.00;101871.91;5250154;28;20052;-84
2021/05/27 09:54:50;;;;;;;18.42;6.20;;;;;;;14.78;100.00;101875.59;5248435;28;20028;-85
2021/05/27 09:57:28;;;;;;;14.10;6.05;;;;;;;14.77;100.00;101882.88;5234550;28;20069;-85
2021/05/27 09:59:58;;;;;;;13.48;5.78;;;;;;;14.80;100.00;101883.53;5248096;28;20020;-84
2021/05/27 10:02:29;;;;;;;15.85;5.45;;;;;;;14.64;100.00;101884.38;5247341;28;20565;-84
2021/05/27 10:04:59;;;;;;;13.95;4.95;;;;;;;15.10;100.00;101892.81;5247980;28;20064;-84
2021/05/27 10:07:40;;;;;;;9.32;5.47;;;;;;;15.12;100.00;101886.22;5247852;28;20032;-85
2021/05/27 10:10:14;;;;;;;9.18;4.47;;;;;;;15.04;100.00;101888.94;5235218;28;20055;-85
2021/05/27 10:12:47;;;;;;;11.63;4.97;;;;;;;15.01;100.00;101891.97;5248035;28;20016;-84
2021/05/27 10:15:20;;;;;;;10.13;5.00;;;;;;;15.19;100.00;101894.47;5244065;28;20021;-84
2021/05/27 10:17:53;;;;;;;8.02;4.97;;;;;;;15.36;100.00;101895.28;5244142;28;20028;-84
2021/05/27 10:20:25;;;;;;;14.52;5.70;;;;;;;14.88;100.00;101899.75;5247710;28;20048;-85
2021/05/27 10:22:56;;;;;;;8.88;5.28;;;;;;;14.67;100.00;101908.34;5247302;28;20039;-85
2021/05/27 10:25:28;;;;;;;13.63;5.80;;;;;;;14.45;100.00;101912.47;5247914;28;20396;-84
2021/05/27 10:28:03;;;;;;;18.77;6.90;;;;;;;14.11;100.00;101907.19;5247489;28;20031;-84
2021/05/27 10:30:37;;;;;;;17.65;6.25;;;;;;;14.30;100.00;101911.44;5247102;28;20024;-85
2021/05/27 10:33:16;;;;;;;47.83;26.25;;;;;;;14.39;100.00;101911.28;5247469;28;20099;-85
2021/05/27 10:35:56;;;;;;;55.22;32.20;;;;;;;15.01;100.00;101908.19;5247563;28;20471;-85
2021/05/27 10:41:12;;;;;;;9.10;3.47;;;;;;;15.50;100.00;101905.41;5235058;28;20039;-85
2021/05/27 10:43:58;;;;;;;8.30;3.90;;;;;;;15.81;100.00;101913.63;5247467;28;20368;-85
2021/05/27 10:46:30;;;;;;;5.95;3.40;;;;;;;15.73;100.00;101913.66;5250961;28;20040;-85
2021/05/27 10:49:00;;;;;;;12.55;4.15;;;;;;;15.68;100.00;101914.19;5249322;28;20412;-85
2021/05/27 10:51:36;;;;;;;13.93;7.95;;;;;;;15.50;100.00;101919.75;5247871;28;20067;-85
2021/05/27 10:54:08;;;;;;;9.70;3.05;;;;;;;15.60;100.00;101907.91;5248514;28;20028;-86
2021/05/27 10:56:43;;;;;;;7.47;2.90;;;;;;;15.52;100.00;101914.19;5247061;28;20036;-85
2021/05/27 10:59:16;;;;;;;8.48;3.22;;;;;;;15.29;100.00;101925.72;5247959;28;20534;-85
2021/05/27 11:01:46;;;;;;;9.40;3.53;;;;;;;15.07;100.00;101915.63;5248437;28;20123;-86
2021/05/27 11:04:34;;;;;;;7.43;3.05;;;;;;;14.93;100.00;101932.50;5248449;28;20452;-85
2021/05/27 11:07:20;;;;;;;9.30;4.60;;;;;;;15.05;100.00;101931.16;5248687;28;20369;-85
2021/05/27 11:09:53;;;;;;;8.50;4.45;;;;;;;14.89;100.00;101934.69;5248428;28;20045;-85
2021/05/27 11:12:26;;;;;;;8.60;4.05;;;;;;;14.93;100.00;101935.22;5248330;28;20088;-85
2021/05/27 11:15:00;;;;;;;7.90;3.95;;;;;;;14.68;100.00;101932.47;5248204;28;20024;-85
2021/05/27 11:17:31;;;;;;;11.30;4.83;;;;;;;14.54;100.00;101930.44;5247900;28;20024;-87
2021/05/27 11:20:08;;;;;;;9.43;4.20;;;;;;;14.71;100.00;101932.16;5246627;28;20271;-86
2021/05/27 11:22:45;;;;;;;7.47;3.90;;;;;;;14.77;100.00;101933.34;5246257;28;20029;-86
2021/05/27 11:25:16;;;;;;;10.50;3.80;;;;;;;14.77;100.00;101939.59;5246706;28;20024;-86
2021/05/27 11:28:02;;;;;;;10.07;4.28;;;;;;;15.11;100.00;101943.13;5246295;28;20055;-86
2021/05/27 11:30:36;;;;;;;19.80;4.75;;;;;;;15.37;100.00;101940.25;5245828;28;20070;-86
2021/05/27 11:33:14;;;;;;;9.80;4.32;;;;;;;15.19;100.00;101945.84;5246038;28;20166;-86
2021/05/27 11:35:48;;;;;;;13.98;4.38;;;;;;;14.91;100.00;101954.31;5246280;28;20467;-86
2021/05/27 11:38:22;;;;;;;14.57;5.55;;;;;;;15.16;100.00;101951.56;5246419;28;20029;-86
2021/05/27 11:40:55;;;;;;;28.98;14.85;;;;;;;15.37;100.00;101965.44;5245908;28;20113;-86
2021/05/27 11:43:30;;;;;;;13.35;6.88;;;;;;;15.02;100.00;101958.53;5246400;28;20055;-85
2021/05/27 11:46:06;;;;;;;6.90;4.10;;;;;;;15.06;100.00;101949.06;5245769;28;20099;-86